Terminal Aerodrome Forecast
Issued by NWS

Home | Current Version | Previous Version | Text Only | Print | Product List | Glossary On
Versions: 1 2 3 4 5 6 7 8 9 10 11 12 13 14 15 16 17 18 19 20
000
FTUS41 KBOX 210524
TAFACK
TAF
KACK 210524Z 2106/2206 01029G40KT 4SM -SHRA BR OVC005 WS020/04055KT
     FM211200 01032G44KT 3SM -SHRA BR OVC003 WS020/04055KT
     FM212200 02032G50KT 3SM -SHRA OVC008 WS020/03060KT
     FM220400 02032G49KT 3SM -SHRA BR OVC008=

USA.gov is the U.S. government's official web portal to all federal, state and local government web resources and services.